Terminal Aerodrome Forecast
Issued by NWS

Home | Current Version | Previous Version | Text Only | Print | Product List | Glossary On
Versions: 1 2 3 4 5 6 7 8 9 10 11 12
525
FTUS44 KLZK 141130
TAFBPK
TAF
KBPK 141130Z 1412/1512 13007G16KT P6SM OVC035
      TEMPO 1412/1414 5SM -FZDZPL BKN020
     FM141400 15008KT P6SM SCT012 OVC020
      TEMPO 1414/1418 -FZRA BKN012
     FM141800 16008KT P6SM BKN015
     FM150000 VRB03KT P6SM OVC015=

USA.gov is the U.S. government's official web portal to all federal, state and local government web resources and services.